createdAt,value
2019-05-09T00:00:43.778Z,1.80
2019-05-09T00:03:13.812Z,1.90
2019-05-09T00:05:44.026Z,1.70
2019-05-09T00:08:13.905Z,1.40
2019-05-09T00:10:44.877Z,1.30
2019-05-09T00:13:13.677Z,1.50
2019-05-09T00:15:43.654Z,1.50
2019-05-09T00:18:14.194Z,1.90
2019-05-09T00:20:44.141Z,1.33
2019-05-09T00:23:13.586Z,1.77
2019-05-09T00:25:43.338Z,1.50
2019-05-09T00:28:13.439Z,2.43
2019-05-09T00:30:55.688Z,1.77
2019-05-09T00:33:28.498Z,1.87
2019-05-09T00:35:56.989Z,1.90
2019-05-09T00:38:34.765Z,1.90
2019-05-09T00:41:03.918Z,1.87
2019-05-09T00:43:34.195Z,1.70
2019-05-09T00:46:04.552Z,1.73
2019-05-09T00:48:40.412Z,2.10
2019-05-09T00:51:09.121Z,1.60
2019-05-09T00:53:37.541Z,2.23
2019-05-09T00:56:06.076Z,1.80
2019-05-09T00:58:34.507Z,2.17
2019-05-09T01:01:04.366Z,2.20
2019-05-09T01:03:33.923Z,1.80
2019-05-09T01:06:04.030Z,1.80
2019-05-09T01:08:33.658Z,1.90
2019-05-09T01:11:11.322Z,2.03
2019-05-09T01:13:34.136Z,1.90
2019-05-09T01:16:04.562Z,1.90
2019-05-09T01:18:33.696Z,2.20
2019-05-09T01:21:03.993Z,2.00
2019-05-09T01:23:34.333Z,2.00
2019-05-09T01:26:03.838Z,1.83
2019-05-09T01:28:33.854Z,1.70
2019-05-09T01:31:04.065Z,1.80
2019-05-09T01:33:34.485Z,1.70
2019-05-09T01:36:03.877Z,1.40
2019-05-09T01:38:33.884Z,1.50
2019-05-09T01:41:04.084Z,1.50
2019-05-09T01:43:33.828Z,1.60
2019-05-09T01:46:03.696Z,1.60
2019-05-09T01:48:34.863Z,1.33
2019-05-09T01:51:03.517Z,1.30
2019-05-09T01:53:33.802Z,1.20
2019-05-09T01:56:03.649Z,1.27
2019-05-09T01:58:34.160Z,1.10
2019-05-09T02:01:04.464Z,1.20
2019-05-09T02:03:33.663Z,1.00
2019-05-09T02:06:03.503Z,1.20
2019-05-09T02:08:35.024Z,1.10
2019-05-09T02:11:03.912Z,1.00
2019-05-09T02:13:33.808Z,0.87
2019-05-09T02:16:07.101Z,1.10
2019-05-09T02:18:37.140Z,1.30
2019-05-09T02:21:05.673Z,0.70
2019-05-09T02:23:34.084Z,1.20
2019-05-09T02:26:04.000Z,1.00
2019-05-09T02:28:34.113Z,1.20
2019-05-09T02:31:05.240Z,1.27
2019-05-09T02:33:34.707Z,1.20
2019-05-09T02:36:03.163Z,1.00
2019-05-09T02:38:31.674Z,0.90
2019-05-09T02:41:00.085Z,1.13
2019-05-09T02:43:29.236Z,0.90
2019-05-09T02:45:59.871Z,0.77
2019-05-09T02:48:28.987Z,0.80
2019-05-09T02:51:00.272Z,1.10
2019-05-09T02:53:28.948Z,1.00
2019-05-09T02:55:58.472Z,0.87
2019-05-09T02:58:28.884Z,0.70
2019-05-09T03:01:07.988Z,1.23
2019-05-09T03:03:39.304Z,0.67
2019-05-09T03:06:09.131Z,1.20
2019-05-09T03:08:38.331Z,0.80
2019-05-09T03:11:09.897Z,1.90
2019-05-09T03:13:39.394Z,2.00
2019-05-09T03:16:09.781Z,1.83
2019-05-09T03:18:38.953Z,1.87
2019-05-09T03:21:11.897Z,1.47
2019-05-09T03:23:40.353Z,1.43
2019-05-09T03:26:10.479Z,1.83
2019-05-09T03:28:40.637Z,1.10
2019-05-09T03:31:10.717Z,1.20
2019-05-09T03:33:40.741Z,1.20
2019-05-09T03:36:09.439Z,1.27
2019-05-09T03:38:37.884Z,1.20
2019-05-09T03:41:08.470Z,1.03
2019-05-09T03:43:37.727Z,1.17
2019-05-09T03:46:07.955Z,1.33
2019-05-09T03:48:54.531Z,1.27
2019-05-09T03:51:22.975Z,0.97
2019-05-09T03:53:51.428Z,1.07
2019-05-09T03:56:24.427Z,0.93
2019-05-09T03:58:53.016Z,1.00
2019-05-09T04:01:21.531Z,1.27
2019-05-09T04:03:49.990Z,1.10
2019-05-09T04:06:18.638Z,1.10
2019-05-09T04:08:48.139Z,0.97
2019-05-09T04:11:18.490Z,1.00
2019-05-09T04:13:55.041Z,1.00
2019-05-09T04:16:23.622Z,0.80
2019-05-09T04:18:52.085Z,1.20
2019-05-09T04:21:20.554Z,1.13
2019-05-09T04:23:48.968Z,1.10
2019-05-09T04:26:19.005Z,0.77
2019-05-09T04:28:47.437Z,0.87
2019-05-09T04:31:17.802Z,0.90
2019-05-09T04:33:47.368Z,0.70
2019-05-09T04:36:18.237Z,1.00
2019-05-09T04:38:47.199Z,1.00
2019-05-09T04:41:23.275Z,1.30
2019-05-09T04:43:45.864Z,1.30
2019-05-09T04:46:21.066Z,0.87
2019-05-09T04:48:47.510Z,1.00
2019-05-09T04:51:15.430Z,1.33
2019-05-09T04:53:43.954Z,1.23
2019-05-09T04:56:20.170Z,0.77
2019-05-09T04:58:48.592Z,0.90
2019-05-09T05:01:19.803Z,1.37
2019-05-09T05:03:49.010Z,0.97
2019-05-09T05:06:20.548Z,1.10
2019-05-09T05:08:47.949Z,0.80
2019-05-09T05:11:17.812Z,1.17
2019-05-09T05:13:48.172Z,1.10
2019-05-09T05:16:18.454Z,1.00
2019-05-09T05:18:47.768Z,1.03
2019-05-09T05:21:19.978Z,1.27
2019-05-09T05:23:48.150Z,0.90
2019-05-09T05:26:18.387Z,1.00
2019-05-09T05:28:47.471Z,0.90
2019-05-09T05:31:18.060Z,1.50
2019-05-09T05:33:51.102Z,1.07
2019-05-09T05:36:19.772Z,1.03
2019-05-09T05:38:48.205Z,1.10
2019-05-09T05:41:18.327Z,1.10
2019-05-09T05:43:47.918Z,1.30
2019-05-09T05:46:24.040Z,1.00
2019-05-09T05:48:53.648Z,1.03
2019-05-09T05:51:22.155Z,1.30
2019-05-09T05:53:50.716Z,1.23
2019-05-09T05:56:19.174Z,1.37
2019-05-09T05:58:48.971Z,1.40
2019-05-09T06:01:18.821Z,1.20
2019-05-09T06:03:48.093Z,1.80
2019-05-09T06:06:17.532Z,1.70
2019-05-09T06:08:48.374Z,3.03
2019-05-09T06:11:17.752Z,2.93
2019-05-09T06:13:54.490Z,1.70
2019-05-09T06:16:18.200Z,1.60
2019-05-09T06:18:47.552Z,1.57
2019-05-09T06:21:17.755Z,1.20
2019-05-09T06:23:48.243Z,1.20
2019-05-09T06:26:18.572Z,1.20
2019-05-09T06:28:48.156Z,0.90
2019-05-09T06:31:17.854Z,1.30
2019-05-09T06:33:52.590Z,1.37
2019-05-09T06:36:18.857Z,1.10
2019-05-09T06:38:48.819Z,1.43
2019-05-09T06:41:17.659Z,1.47
2019-05-09T06:43:49.660Z,1.57
2019-05-09T06:46:22.458Z,1.60
2019-05-09T06:48:50.949Z,1.50
2019-05-09T06:51:21.368Z,1.30
2019-05-09T06:53:49.553Z,1.60
2019-05-09T06:56:18.039Z,1.33
2019-05-09T06:58:48.138Z,1.10
2019-05-09T07:01:28.524Z,1.27
2019-05-09T07:04:01.244Z,1.50
2019-05-09T07:06:31.392Z,2.03
2019-05-09T07:09:04.198Z,1.97
2019-05-09T07:11:32.655Z,1.83
2019-05-09T07:14:01.068Z,2.37
2019-05-09T07:16:29.487Z,1.80
2019-05-09T07:18:58.086Z,1.80
2019-05-09T07:21:28.682Z,1.90
2019-05-09T07:23:58.285Z,1.60
2019-05-09T07:26:31.505Z,1.70
2019-05-09T07:28:59.903Z,1.67
2019-05-09T07:31:29.990Z,1.87
2019-05-09T07:34:00.044Z,1.77
2019-05-09T07:36:29.422Z,2.50
2019-05-09T07:38:58.339Z,2.77
2019-05-09T07:41:28.181Z,2.77
2019-05-09T07:43:58.255Z,3.13
2019-05-09T07:46:29.076Z,3.20
2019-05-09T07:48:58.050Z,7.90
2019-05-09T07:51:27.528Z,4.30
2019-05-09T07:53:58.657Z,4.10
2019-05-09T07:56:28.486Z,3.17
2019-05-09T07:58:58.485Z,3.30
2019-05-09T08:01:28.049Z,3.20
2019-05-09T08:03:58.359Z,3.17
2019-05-09T08:06:28.650Z,2.87
2019-05-09T08:08:58.173Z,2.90
2019-05-09T08:11:28.467Z,2.27
2019-05-09T08:13:57.632Z,1.70
2019-05-09T08:16:27.869Z,1.17
2019-05-09T08:18:57.822Z,1.67
2019-05-09T08:21:27.706Z,1.37
2019-05-09T08:23:57.895Z,1.67
2019-05-09T08:26:29.666Z,1.73
2019-05-09T08:28:58.388Z,2.07
2019-05-09T08:31:28.109Z,2.50
2019-05-09T08:33:59.362Z,2.00
2019-05-09T08:36:28.239Z,2.27
2019-05-09T08:38:58.678Z,2.00
2019-05-09T08:41:29.061Z,1.80
2019-05-09T08:43:57.700Z,1.50
2019-05-09T08:46:28.561Z,1.37
2019-05-09T08:48:57.641Z,1.43
2019-05-09T08:51:37.411Z,1.20
2019-05-09T08:54:00.870Z,1.50
2019-05-09T08:56:29.375Z,1.67
2019-05-09T08:59:01.760Z,1.47
2019-05-09T09:01:46.126Z,1.60
2019-05-09T09:03:58.261Z,1.40
2019-05-09T09:06:27.871Z,2.23
2019-05-09T09:08:57.592Z,1.80
2019-05-09T09:11:28.055Z,2.10
2019-05-09T09:13:57.733Z,2.80
2019-05-09T09:16:28.336Z,4.20
2019-05-09T09:18:58.394Z,3.10
2019-05-09T09:21:28.610Z,1.90
2019-05-09T09:23:58.213Z,1.97
2019-05-09T09:26:27.772Z,1.70
2019-05-09T09:28:57.786Z,2.20
2019-05-09T09:31:28.425Z,1.83
2019-05-09T09:33:58.546Z,1.90
2019-05-09T09:36:28.097Z,1.53
2019-05-09T09:38:58.688Z,1.90
2019-05-09T09:41:28.670Z,1.63
2019-05-09T09:43:58.189Z,1.80
2019-05-09T09:46:28.610Z,1.57
2019-05-09T09:48:58.580Z,1.47
2019-05-09T09:51:27.650Z,1.67
2019-05-09T09:53:58.255Z,1.67
2019-05-09T09:56:28.185Z,2.10
2019-05-09T09:59:14.287Z,1.83
2019-05-09T10:01:50.316Z,1.40
2019-05-09T10:04:23.977Z,2.10
2019-05-09T10:06:52.977Z,1.70
2019-05-09T10:09:19.929Z,1.80
2019-05-09T10:11:48.496Z,1.80
2019-05-09T10:14:18.713Z,1.70
2019-05-09T10:16:54.971Z,1.50
2019-05-09T10:19:29.499Z,1.80
2019-05-09T10:22:11.615Z,1.80
2019-05-09T10:24:40.009Z,1.77
2019-05-09T10:27:10.121Z,1.63
2019-05-09T10:29:39.040Z,1.87
2019-05-09T10:32:12.195Z,1.80
2019-05-09T10:34:40.831Z,1.50
2019-05-09T10:37:09.255Z,1.90
2019-05-09T10:39:38.171Z,1.90
2019-05-09T10:42:08.321Z,1.90
2019-05-09T10:44:38.389Z,1.70
2019-05-09T10:47:19.457Z,1.90
2019-05-09T10:49:48.762Z,1.70
2019-05-09T10:52:18.228Z,1.87
2019-05-09T10:54:46.803Z,2.00
2019-05-09T10:57:15.312Z,1.80
2019-05-09T10:59:43.690Z,2.03
2019-05-09T11:02:12.125Z,3.50
2019-05-09T11:04:44.164Z,4.20
2019-05-09T11:07:10.719Z,3.80
2019-05-09T11:09:39.198Z,2.70
2019-05-09T11:12:08.032Z,2.20
2019-05-09T11:14:37.874Z,2.33
2019-05-09T11:17:14.131Z,2.10
2019-05-09T11:19:36.641Z,4.10
2019-05-09T11:22:07.812Z,2.93
2019-05-09T11:24:44.889Z,1.60
2019-05-09T11:27:08.319Z,2.00
2019-05-09T11:29:35.605Z,1.60
2019-05-09T11:32:04.783Z,2.23
2019-05-09T11:34:33.234Z,2.20
2019-05-09T11:37:01.657Z,2.40
2019-05-09T11:39:36.619Z,2.07
2019-05-09T11:42:00.199Z,1.87
2019-05-09T11:44:28.680Z,2.00
2019-05-09T11:46:58.253Z,2.23
2019-05-09T11:49:29.385Z,2.80
2019-05-09T11:51:57.723Z,2.30
2019-05-09T11:54:27.925Z,2.07
2019-05-09T11:56:57.619Z,2.43
2019-05-09T11:59:28.009Z,2.47
2019-05-09T12:01:58.610Z,3.00
2019-05-09T12:04:28.132Z,2.77
2019-05-09T12:06:57.737Z,2.57
2019-05-09T12:09:28.646Z,2.57
2019-05-09T12:11:59.079Z,2.90
2019-05-09T12:14:27.629Z,2.33
2019-05-09T12:16:56.084Z,3.10
2019-05-09T12:19:24.533Z,5.53
2019-05-09T12:21:53.062Z,2.93
2019-05-09T12:24:21.454Z,3.90
2019-05-09T12:26:49.863Z,3.10
2019-05-09T12:29:19.575Z,3.10
2019-05-09T12:31:48.675Z,2.43
2019-05-09T12:34:19.310Z,3.00
2019-05-09T12:36:49.342Z,2.30
2019-05-09T12:39:18.846Z,2.70
2019-05-09T12:41:48.468Z,2.37
2019-05-09T12:44:18.219Z,2.87
2019-05-09T12:46:48.770Z,2.20
2019-05-09T12:49:18.983Z,1.60
2019-05-09T12:51:47.697Z,1.97
2019-05-09T12:54:18.747Z,1.60
2019-05-09T12:56:48.563Z,1.63
2019-05-09T12:59:18.780Z,1.73
2019-05-09T13:01:49.272Z,1.53
2019-05-09T13:04:16.842Z,1.63
2019-05-09T13:06:45.314Z,2.00
2019-05-09T13:09:13.756Z,2.53
2019-05-09T13:11:42.166Z,2.03
2019-05-09T13:14:10.609Z,1.70
2019-05-09T13:16:49.224Z,1.70
2019-05-09T13:19:15.226Z,2.23
2019-05-09T13:21:43.749Z,2.10
2019-05-09T13:24:12.243Z,1.80
2019-05-09T13:26:41.513Z,2.00
2019-05-09T13:29:10.026Z,1.60
2019-05-09T13:31:39.643Z,1.97
2019-05-09T13:34:08.394Z,4.60
2019-05-09T13:36:36.762Z,6.97
2019-05-09T13:39:08.756Z,3.00
2019-05-09T13:41:38.365Z,4.90
2019-05-09T13:44:12.969Z,3.03
2019-05-09T13:46:38.806Z,1.60
2019-05-09T13:49:12.477Z,2.97
2019-05-09T13:51:47.187Z,5.13
2019-05-09T13:54:07.480Z,2.70
2019-05-09T13:56:35.890Z,3.13
2019-05-09T13:59:04.463Z,1.40
2019-05-09T14:01:32.880Z,1.20
2019-05-09T14:04:02.157Z,1.07
2019-05-09T14:06:30.620Z,1.20
2019-05-09T14:08:59.930Z,1.20
2019-05-09T14:11:29.322Z,1.30
2019-05-09T14:13:57.806Z,1.50
2019-05-09T14:16:28.797Z,1.53
2019-05-09T14:18:59.001Z,1.20
2019-05-09T14:21:29.563Z,1.10
2019-05-09T14:24:11.001Z,1.10
2019-05-09T14:26:27.740Z,0.90
2019-05-09T14:28:58.233Z,0.90
2019-05-09T14:31:31.835Z,1.03
2019-05-09T14:33:57.126Z,1.20
2019-05-09T14:36:27.782Z,1.00
2019-05-09T14:38:57.979Z,0.80
2019-05-09T14:41:27.686Z,1.10
2019-05-09T14:43:56.098Z,0.90
2019-05-09T14:46:28.480Z,1.03
2019-05-09T14:48:58.482Z,1.30
2019-05-09T14:51:28.434Z,1.00
2019-05-09T14:53:59.450Z,1.10
2019-05-09T14:56:28.043Z,0.87
2019-05-09T14:58:58.022Z,1.00
2019-05-09T15:01:28.790Z,0.60
2019-05-09T15:03:58.553Z,0.90
2019-05-09T15:06:28.236Z,0.70
2019-05-09T15:08:58.100Z,0.80
2019-05-09T15:11:28.191Z,0.70
2019-05-09T15:13:58.450Z,0.53
2019-05-09T15:16:28.282Z,0.80
2019-05-09T15:18:58.379Z,0.90
2019-05-09T15:21:27.078Z,1.00
2019-05-09T15:23:55.513Z,0.77
2019-05-09T15:26:23.933Z,1.50
2019-05-09T15:28:52.410Z,0.87
2019-05-09T15:31:20.978Z,0.90
2019-05-09T15:33:49.448Z,0.60
2019-05-09T15:36:19.336Z,0.73
2019-05-09T15:38:48.767Z,0.70
2019-05-09T15:41:18.394Z,0.80
2019-05-09T15:43:48.499Z,0.60
2019-05-09T15:46:27.971Z,0.70
2019-05-09T15:48:58.263Z,0.83
2019-05-09T15:51:27.958Z,1.00
2019-05-09T15:53:57.777Z,0.77
2019-05-09T15:56:28.685Z,1.10
2019-05-09T15:58:57.983Z,0.70
2019-05-09T16:01:27.883Z,1.10
2019-05-09T16:03:56.427Z,1.10
2019-05-09T16:06:24.920Z,0.90
2019-05-09T16:08:53.321Z,1.00
2019-05-09T16:11:21.738Z,0.60
2019-05-09T16:13:50.166Z,0.60
2019-05-09T16:16:18.675Z,0.63
2019-05-09T16:18:48.574Z,0.50
2019-05-09T16:21:17.383Z,0.60
2019-05-09T16:23:48.530Z,0.60
2019-05-09T16:26:18.083Z,0.70
2019-05-09T16:28:48.695Z,0.90
2019-05-09T16:31:16.452Z,0.83
2019-05-09T16:33:47.589Z,1.10
2019-05-09T16:36:17.399Z,0.93
2019-05-09T16:38:48.485Z,1.10
2019-05-09T16:41:18.363Z,1.13
2019-05-09T16:43:47.783Z,0.90
2019-05-09T16:46:18.148Z,1.13
2019-05-09T16:48:47.556Z,1.27
2019-05-09T16:51:18.206Z,0.80
2019-05-09T16:53:49.531Z,1.73
2019-05-09T16:56:18.043Z,3.57
2019-05-09T16:58:46.757Z,0.90
2019-05-09T17:01:18.101Z,0.77
2019-05-09T17:03:45.428Z,0.80
2019-05-09T17:06:13.970Z,0.90
2019-05-09T17:08:42.478Z,0.80
2019-05-09T17:11:10.958Z,0.70
2019-05-09T17:13:39.482Z,1.03
2019-05-09T17:16:08.349Z,0.83
2019-05-09T17:18:38.202Z,1.20
2019-05-09T17:21:18.460Z,0.83
2019-05-09T17:23:44.763Z,1.17
2019-05-09T17:26:13.164Z,0.60
2019-05-09T17:28:41.610Z,0.93
2019-05-09T17:31:10.037Z,0.93
2019-05-09T17:33:38.571Z,0.93
2019-05-09T17:36:07.160Z,0.93
2019-05-09T17:38:35.578Z,1.47
2019-05-09T17:41:04.083Z,1.10
2019-05-09T17:43:32.530Z,0.90
2019-05-09T17:46:00.959Z,0.80
2019-05-09T17:48:29.386Z,0.53
2019-05-09T17:50:58.102Z,0.40
2019-05-09T17:53:29.302Z,0.60
2019-05-09T17:55:58.586Z,0.50
2019-05-09T17:58:33.064Z,0.67
2019-05-09T18:00:57.764Z,1.70
2019-05-09T18:03:28.883Z,1.40
2019-05-09T18:05:57.751Z,2.20
2019-05-09T18:08:28.304Z,1.57
2019-05-09T18:10:58.231Z,0.80
2019-05-09T18:13:29.629Z,1.20
2019-05-09T18:15:56.938Z,0.70
2019-05-09T18:18:28.161Z,0.80
2019-05-09T18:20:58.059Z,0.80
2019-05-09T18:23:28.377Z,0.50
2019-05-09T18:25:58.553Z,0.90
2019-05-09T18:28:29.086Z,0.57
2019-05-09T18:30:58.552Z,0.50
2019-05-09T18:33:32.105Z,0.67
2019-05-09T18:36:00.515Z,0.70
2019-05-09T18:38:32.067Z,0.90
2019-05-09T18:41:07.000Z,1.03
2019-05-09T18:43:33.663Z,1.00
2019-05-09T18:46:02.545Z,0.90
2019-05-09T18:48:31.103Z,0.93
2019-05-09T18:51:00.028Z,0.90
2019-05-09T18:53:28.812Z,1.17
2019-05-09T18:55:58.335Z,1.10
2019-05-09T18:58:26.925Z,1.00
2019-05-09T19:00:55.763Z,1.00
2019-05-09T19:03:24.198Z,0.77
2019-05-09T19:05:52.786Z,0.90
2019-05-09T19:08:21.213Z,0.90
2019-05-09T19:10:52.301Z,1.00
2019-05-09T19:13:24.800Z,0.80
2019-05-09T19:16:01.267Z,1.00
2019-05-09T19:18:34.437Z,1.13
2019-05-09T19:21:07.274Z,0.80
2019-05-09T19:23:35.688Z,0.83
2019-05-09T19:26:06.665Z,1.03
2019-05-09T19:28:35.140Z,1.20
2019-05-09T19:31:03.923Z,1.10
2019-05-09T19:33:32.261Z,1.83
2019-05-09T19:36:00.691Z,1.37
2019-05-09T19:38:29.204Z,1.20
2019-05-09T19:40:57.637Z,2.20
2019-05-09T19:43:26.173Z,1.17
2019-05-09T19:45:54.615Z,0.80
2019-05-09T19:48:23.508Z,0.70
2019-05-09T19:50:51.977Z,0.90
2019-05-09T19:53:20.758Z,0.90
2019-05-09T19:55:49.569Z,1.10
2019-05-09T19:58:18.562Z,1.47
2019-05-09T20:00:47.574Z,2.20
2019-05-09T20:03:15.976Z,1.90
2019-05-09T20:05:44.586Z,1.90
2019-05-09T20:08:13.165Z,2.17
2019-05-09T20:10:59.725Z,2.07
2019-05-09T20:13:33.006Z,1.83
2019-05-09T20:16:01.551Z,1.90
2019-05-09T20:18:29.998Z,1.90
2019-05-09T20:20:58.512Z,1.90
2019-05-09T20:23:26.934Z,1.90
2019-05-09T20:25:55.380Z,1.63
2019-05-09T20:28:23.846Z,1.90
2019-05-09T20:30:52.267Z,1.83
2019-05-09T20:33:20.696Z,1.97
2019-05-09T20:35:49.106Z,2.10
2019-05-09T20:38:17.885Z,2.23
2019-05-09T20:40:46.497Z,2.27
2019-05-09T20:43:15.131Z,2.60
2019-05-09T20:45:43.727Z,2.60
2019-05-09T20:48:12.312Z,2.90
2019-05-09T20:50:44.340Z,3.60
2019-05-09T20:53:11.520Z,3.13
2019-05-09T20:55:40.187Z,2.97
2019-05-09T20:58:08.989Z,3.23
2019-05-09T21:00:37.816Z,3.00
2019-05-09T21:03:08.145Z,2.90
2019-05-09T21:05:36.876Z,2.70
2019-05-09T21:08:05.572Z,3.17
2019-05-09T21:10:34.203Z,3.23
2019-05-09T21:13:02.770Z,3.10
2019-05-09T21:15:31.482Z,2.77
2019-05-09T21:18:00.170Z,2.87
2019-05-09T21:20:28.801Z,2.73
2019-05-09T21:22:57.438Z,3.07
2019-05-09T21:25:26.025Z,2.53
2019-05-09T21:27:54.663Z,2.27
2019-05-09T21:30:24.278Z,2.30
2019-05-09T21:32:52.947Z,2.00
2019-05-09T21:35:21.480Z,2.10
2019-05-09T21:37:49.887Z,1.70
2019-05-09T21:40:18.354Z,2.00
2019-05-09T21:42:46.924Z,1.60
2019-05-09T21:45:15.432Z,1.60
2019-05-09T21:47:43.967Z,12.70
2019-05-09T21:50:13.829Z,2.30
2019-05-09T21:52:43.899Z,2.80
2019-05-09T21:55:12.476Z,2.60
2019-05-09T21:57:40.888Z,2.30
2019-05-09T22:00:15.255Z,1.93
2019-05-09T22:02:44.239Z,1.93
2019-05-09T22:05:12.934Z,1.97
2019-05-09T22:07:41.428Z,1.77
2019-05-09T22:10:10.151Z,2.00
2019-05-09T22:12:38.640Z,2.50
2019-05-09T22:15:07.947Z,1.97
2019-05-09T22:17:40.151Z,2.00
2019-05-09T22:20:13.257Z,2.07
2019-05-09T22:22:41.769Z,2.27
2019-05-09T22:25:12.266Z,2.40
2019-05-09T22:27:40.689Z,2.63
2019-05-09T22:30:11.823Z,2.43
2019-05-09T22:32:40.344Z,3.00
2019-05-09T22:35:09.209Z,2.30
2019-05-09T22:37:37.613Z,2.17
2019-05-09T22:40:07.950Z,2.70
2019-05-09T22:42:36.478Z,2.20
2019-05-09T22:45:08.891Z,2.53
2019-05-09T22:47:37.379Z,2.10
2019-05-09T22:50:07.294Z,2.40
2019-05-09T22:52:35.680Z,1.87
2019-05-09T22:55:04.867Z,2.27
2019-05-09T22:57:33.317Z,2.37
2019-05-09T23:00:02.490Z,1.90
2019-05-09T23:02:31.075Z,1.60
2019-05-09T23:04:59.701Z,1.67
2019-05-09T23:07:28.142Z,2.00
2019-05-09T23:09:56.633Z,1.50
2019-05-09T23:12:25.157Z,1.80
2019-05-09T23:14:53.597Z,2.10
2019-05-09T23:17:22.007Z,1.80
2019-05-09T23:19:50.531Z,1.97
2019-05-09T23:22:19.464Z,1.80
2019-05-09T23:24:47.993Z,1.73
2019-05-09T23:27:18.097Z,1.77
2019-05-09T23:29:46.571Z,1.80
2019-05-09T23:32:16.686Z,1.70
2019-05-09T23:34:45.106Z,1.63
2019-05-09T23:37:13.608Z,1.50
2019-05-09T23:39:43.685Z,1.90
2019-05-09T23:42:12.090Z,1.50
2019-05-09T23:44:40.589Z,1.90
2019-05-09T23:47:09.066Z,2.20
2019-05-09T23:49:37.517Z,2.10
2019-05-09T23:52:05.911Z,1.63
2019-05-09T23:54:51.964Z,2.10
2019-05-09T23:57:37.851Z,2.17
